Etusivu
METAR-TAF:

METAR-TAF

Lentoasemat :

Tanegashima, Japani

Leveyspiiri: 30-33N, Pituuspiiri: 130-57E, korkeus merenpinnasta: 92 m

Tämänhetkinen sää

Tämä raportti tehtiin 7 tuntia ja 42 minuuttia sitten, kello 09.00 UTC
Tuuli 9 kn luoteesta
Lämpötila 10°C
Kosteus 62%
Ilmanpaine 1026 hPa
Näkyvyys 10 km tai enemmän
Muutamia pilviä 3000 ft:n korkeudessa
Hajonneita pilviä 3500 ft:n korkeudessa

METAR: RJFG 140900Z 32009KT 9999 FEW030 BKN035 10/03 Q1026

Aika: 01:42 (16:42 UTC)


TAF: puuttuu

Säähavainnot ja -ennusteet yli 4000 lentoasemalta (METAR- ja TAF-raportit).

Käytössä olevat sääasemat on merkitty karttaan keltaisilla ja punaisilla pisteillä.

Aseta hiiri pisteen päälle nähdäksesi sääaseman nimen.

Klikkaa sitten nähdäksesi säähavainnot ja -ennusteet.

Kartan vaihtaminen: klikkaa mustalla rastilla varustettuja vihreitä pisteitä, niin voit zoomata sisään; viivalla varustettua vihreää pistettä, niin voit zoomata ulos tai vihreitä nuolia, niin pääset viereisille kartoille.


METAR-TAF: